sensor_id;sensor_type;location;lat;lon;timestamp;pressure;altitude;pressure_sealevel;temperature;humidity
8101;BME280;4093;53.470;9.832;2023-05-03T00:01:30;102761.22;;;5.87;78.92
8101;BME280;4093;53.470;9.832;2023-05-03T00:03:57;102781.66;;;5.84;80.29
8101;BME280;4093;53.470;9.832;2023-05-03T00:06:25;102774.41;;;5.73;79.95
8101;BME280;4093;53.470;9.832;2023-05-03T00:08:54;102782.72;;;5.90;80.11
8101;BME280;4093;53.470;9.832;2023-05-03T00:11:22;102775.53;;;6.04;78.22
8101;BME280;4093;53.470;9.832;2023-05-03T00:13:50;102785.00;;;6.31;77.01
8101;BME280;4093;53.470;9.832;2023-05-03T00:16:17;102759.13;;;5.28;80.63
8101;BME280;4093;53.470;9.832;2023-05-03T00:18:45;102708.41;;;4.75;81.95
8101;BME280;4093;53.470;9.832;2023-05-03T00:21:14;102779.63;;;5.28;81.91
8101;BME280;4093;53.470;9.832;2023-05-03T00:23:42;102787.81;;;5.65;80.00
8101;BME280;4093;53.470;9.832;2023-05-03T00:26:11;102779.03;;;5.58;80.36
8101;BME280;4093;53.470;9.832;2023-05-03T00:28:40;102778.59;;;5.46;80.11
8101;BME280;4093;53.470;9.832;2023-05-03T00:31:09;102760.50;;;4.75;83.33
8101;BME280;4093;53.470;9.832;2023-05-03T00:33:37;102779.28;;;4.74;84.22
8101;BME280;4093;53.470;9.832;2023-05-03T00:36:08;102765.88;;;4.81;82.88
8101;BME280;4093;53.470;9.832;2023-05-03T00:38:36;102766.25;;;5.13;81.59
8101;BME280;4093;53.470;9.832;2023-05-03T00:41:05;102785.00;;;5.34;81.31
8101;BME280;4093;53.470;9.832;2023-05-03T00:43:34;102780.38;;;5.72;78.63
8101;BME280;4093;53.470;9.832;2023-05-03T00:46:04;102748.03;;;5.52;77.57
8101;BME280;4093;53.470;9.832;2023-05-03T00:48:43;102774.75;;;5.34;79.94
8101;BME280;4093;53.470;9.832;2023-05-03T00:51:12;102754.72;;;5.24;80.11
8101;BME280;4093;53.470;9.832;2023-05-03T00:53:41;102782.19;;;5.51;80.37
8101;BME280;4093;53.470;9.832;2023-05-03T00:56:09;102759.53;;;5.17;80.57
8101;BME280;4093;53.470;9.832;2023-05-03T00:58:39;102770.69;;;5.17;81.44
8101;BME280;4093;53.470;9.832;2023-05-03T01:01:06;102764.53;;;5.14;80.90
8101;BME280;4093;53.470;9.832;2023-05-03T01:03:35;102766.09;;;5.08;81.73
8101;BME280;4093;53.470;9.832;2023-05-03T01:06:10;102781.91;;;5.43;80.41
8101;BME280;4093;53.470;9.832;2023-05-03T01:08:46;102761.38;;;4.76;81.64
8101;BME280;4093;53.470;9.832;2023-05-03T01:11:20;102786.63;;;5.32;80.24
8101;BME280;4093;53.470;9.832;2023-05-03T01:13:54;102772.66;;;5.24;80.41
8101;BME280;4093;53.470;9.832;2023-05-03T01:16:27;102770.00;;;4.99;80.58
8101;BME280;4093;53.470;9.832;2023-05-03T01:18:59;102779.28;;;4.97;81.71
8101;BME280;4093;53.470;9.832;2023-05-03T01:21:31;102768.47;;;4.60;83.19
8101;BME280;4093;53.470;9.832;2023-05-03T01:24:05;102770.84;;;4.56;83.16
8101;BME280;4093;53.470;9.832;2023-05-03T01:26:35;102773.53;;;4.59;82.48
8101;BME280;4093;53.470;9.832;2023-05-03T01:29:03;102774.16;;;4.32;83.42
8101;BME280;4093;53.470;9.832;2023-05-03T01:31:34;102763.19;;;4.14;83.63
8101;BME280;4093;53.470;9.832;2023-05-03T01:34:13;102804.22;;;5.01;81.37
8101;BME280;4093;53.470;9.832;2023-05-03T01:36:45;102775.84;;;4.53;81.75
8101;BME280;4093;53.470;9.832;2023-05-03T01:39:17;102793.00;;;4.76;80.58
8101;BME280;4093;53.470;9.832;2023-05-03T01:41:49;102788.38;;;4.45;82.75
8101;BME280;4093;53.470;9.832;2023-05-03T01:44:17;102798.38;;;4.82;82.31
8101;BME280;4093;53.470;9.832;2023-05-03T01:46:46;102801.47;;;4.74;81.93
8101;BME280;4093;53.470;9.832;2023-05-03T01:49:15;102801.75;;;4.81;81.54
8101;BME280;4093;53.470;9.832;2023-05-03T01:51:42;102793.38;;;4.85;79.87
8101;BME280;4093;53.470;9.832;2023-05-03T01:54:10;102792.66;;;4.67;81.31
8101;BME280;4093;53.470;9.832;2023-05-03T01:56:38;102781.97;;;4.35;82.89
8101;BME280;4093;53.470;9.832;2023-05-03T01:59:07;102782.41;;;4.67;80.14
8101;BME280;4093;53.470;9.832;2023-05-03T02:01:36;102801.84;;;5.05;79.52
8101;BME280;4093;53.470;9.832;2023-05-03T02:04:03;102798.25;;;4.79;80.40
8101;BME280;4093;53.470;9.832;2023-05-03T02:06:31;102781.59;;;4.68;80.63
8101;BME280;4093;53.470;9.832;2023-05-03T02:08:59;102782.28;;;4.43;81.41
8101;BME280;4093;53.470;9.832;2023-05-03T02:11:27;102797.53;;;4.61;81.52
8101;BME280;4093;53.470;9.832;2023-05-03T02:13:54;102797.75;;;4.88;79.18
8101;BME280;4093;53.470;9.832;2023-05-03T02:16:23;102792.22;;;4.77;79.32
8101;BME280;4093;53.470;9.832;2023-05-03T02:18:51;102783.78;;;4.38;81.06
8101;BME280;4093;53.470;9.832;2023-05-03T02:21:19;102787.69;;;4.09;84.16
8101;BME280;4093;53.470;9.832;2023-05-03T02:23:47;102789.78;;;4.17;84.33
8101;BME280;4093;53.470;9.832;2023-05-03T02:26:15;102793.66;;;4.50;82.79
8101;BME280;4093;53.470;9.832;2023-05-03T02:28:42;102793.75;;;4.32;84.15
8101;BME280;4093;53.470;9.832;2023-05-03T02:31:10;102803.81;;;4.69;83.25
8101;BME280;4093;53.470;9.832;2023-05-03T02:33:40;102808.75;;;4.85;82.90
8101;BME280;4093;53.470;9.832;2023-05-03T02:36:08;102811.47;;;5.11;81.64
8101;BME280;4093;53.470;9.832;2023-05-03T02:38:35;102799.63;;;4.92;81.60
8101;BME280;4093;53.470;9.832;2023-05-03T02:41:03;102790.91;;;4.66;83.83
8101;BME280;4093;53.470;9.832;2023-05-03T02:43:31;102796.91;;;4.46;85.46
8101;BME280;4093;53.470;9.832;2023-05-03T02:45:58;102808.56;;;5.24;83.45
8101;BME280;4093;53.470;9.832;2023-05-03T02:48:26;102810.28;;;5.70;80.77
8101;BME280;4093;53.470;9.832;2023-05-03T02:50:55;102793.16;;;5.47;81.90
8101;BME280;4093;53.470;9.832;2023-05-03T02:53:23;102791.97;;;5.15;83.47
8101;BME280;4093;53.470;9.832;2023-05-03T02:55:51;102809.13;;;5.40;84.21
8101;BME280;4093;53.470;9.832;2023-05-03T02:58:18;102743.16;;;4.68;84.92
8101;BME280;4093;53.470;9.832;2023-05-03T03:00:46;102799.69;;;5.61;82.43
8101;BME280;4093;53.470;9.832;2023-05-03T03:03:14;102803.03;;;5.36;84.40
8101;BME280;4093;53.470;9.832;2023-05-03T03:05:42;102806.81;;;5.23;85.33
8101;BME280;4093;53.470;9.832;2023-05-03T03:08:11;102800.38;;;5.34;84.52
8101;BME280;4093;53.470;9.832;2023-05-03T03:10:38;102816.06;;;5.65;84.84
8101;BME280;4093;53.470;9.832;2023-05-03T03:13:06;102801.00;;;5.74;83.27
8101;BME280;4093;53.470;9.832;2023-05-03T03:15:34;102787.88;;;5.66;83.41
8101;BME280;4093;53.470;9.832;2023-05-03T03:18:01;102802.06;;;6.05;81.78
8101;BME280;4093;53.470;9.832;2023-05-03T03:20:29;102802.44;;;5.91;82.02
8101;BME280;4093;53.470;9.832;2023-05-03T03:22:57;102805.88;;;6.40;81.22
8101;BME280;4093;53.470;9.832;2023-05-03T03:25:26;102796.91;;;6.29;81.32
8101;BME280;4093;53.470;9.832;2023-05-03T03:27:54;102794.50;;;6.33;81.31
8101;BME280;4093;53.470;9.832;2023-05-03T03:30:22;102786.66;;;6.83;79.97
8101;BME280;4093;53.470;9.832;2023-05-03T03:32:49;102789.19;;;6.81;79.44
8101;BME280;4093;53.470;9.832;2023-05-03T03:35:17;102788.69;;;6.64;80.72
8101;BME280;4093;53.470;9.832;2023-05-03T03:37:45;102794.56;;;6.89;80.27
8101;BME280;4093;53.470;9.832;2023-05-03T03:40:12;102791.81;;;6.56;82.08
8101;BME280;4093;53.470;9.832;2023-05-03T03:42:41;102765.16;;;6.52;82.06
8101;BME280;4093;53.470;9.832;2023-05-03T03:45:10;102789.50;;;6.90;82.08
8101;BME280;4093;53.470;9.832;2023-05-03T03:47:38;102786.00;;;6.61;83.25
8101;BME280;4093;53.470;9.832;2023-05-03T03:50:06;102779.88;;;6.58;82.08
8101;BME280;4093;53.470;9.832;2023-05-03T03:52:34;102788.09;;;7.02;81.22
8101;BME280;4093;53.470;9.832;2023-05-03T03:55:02;102786.84;;;7.17;79.51
8101;BME280;4093;53.470;9.832;2023-05-03T03:57:29;102774.06;;;6.63;82.69
8101;BME280;4093;53.470;9.832;2023-05-03T03:59:59;102784.00;;;6.80;82.90
8101;BME280;4093;53.470;9.832;2023-05-03T04:02:27;102782.66;;;7.19;80.52
8101;BME280;4093;53.470;9.832;2023-05-03T04:04:55;102779.88;;;7.42;79.75
8101;BME280;4093;53.470;9.832;2023-05-03T04:07:22;102775.25;;;7.30;80.77
8101;BME280;4093;53.470;9.832;2023-05-03T04:09:50;102767.97;;;7.15;81.46
8101;BME280;4093;53.470;9.832;2023-05-03T04:12:18;102776.91;;;7.28;83.07
8101;BME280;4093;53.470;9.832;2023-05-03T04:14:46;102781.25;;;7.61;81.23
8101;BME280;4093;53.470;9.832;2023-05-03T04:17:15;102766.66;;;7.30;81.54
8101;BME280;4093;53.470;9.832;2023-05-03T04:19:42;102760.25;;;7.15;82.83
8101;BME280;4093;53.470;9.832;2023-05-03T04:22:10;102780.00;;;7.47;82.33
8101;BME280;4093;53.470;9.832;2023-05-03T04:24:38;102767.94;;;7.44;81.65
8101;BME280;4093;53.470;9.832;2023-05-03T04:27:06;102769.66;;;6.86;84.08
8101;BME280;4093;53.470;9.832;2023-05-03T04:29:33;102779.06;;;7.43;82.61
8101;BME280;4093;53.470;9.832;2023-05-03T04:32:04;102780.38;;;7.59;82.52
8101;BME280;4093;53.470;9.832;2023-05-03T04:34:33;102785.28;;;7.51;83.27
8101;BME280;4093;53.470;9.832;2023-05-03T04:37:01;102774.34;;;7.90;81.28
8101;BME280;4093;53.470;9.832;2023-05-03T04:39:30;102786.72;;;8.05;81.45
8101;BME280;4093;53.470;9.832;2023-05-03T04:41:58;102775.53;;;8.03;80.69
8101;BME280;4093;53.470;9.832;2023-05-03T04:44:26;102782.22;;;7.64;82.61
8101;BME280;4093;53.470;9.832;2023-05-03T04:46:54;102792.03;;;8.09;82.20
8101;BME280;4093;53.470;9.832;2023-05-03T04:49:22;102789.66;;;8.50;80.34
8101;BME280;4093;53.470;9.832;2023-05-03T04:51:51;102790.91;;;8.68;79.41
8101;BME280;4093;53.470;9.832;2023-05-03T04:54:21;102786.66;;;8.70;79.54
8101;BME280;4093;53.470;9.832;2023-05-03T04:56:49;102794.72;;;8.84;78.72
8101;BME280;4093;53.470;9.832;2023-05-03T04:59:17;102794.41;;;9.08;77.19
8101;BME280;4093;53.470;9.832;2023-05-03T05:01:45;102792.75;;;9.10;77.71
8101;BME280;4093;53.470;9.832;2023-05-03T05:04:13;102803.53;;;9.31;76.92
8101;BME280;4093;53.470;9.832;2023-05-03T05:06:41;102802.94;;;9.44;76.54
8101;BME280;4093;53.470;9.832;2023-05-03T05:09:20;102800.53;;;9.54;77.12
8101;BME280;4093;53.470;9.832;2023-05-03T05:11:48;102796.25;;;9.54;77.66
8101;BME280;4093;53.470;9.832;2023-05-03T05:14:16;102814.84;;;9.80;76.45
8101;BME280;4093;53.470;9.832;2023-05-03T05:16:44;102797.16;;;9.56;77.20
8101;BME280;4093;53.470;9.832;2023-05-03T05:19:12;102799.22;;;9.74;75.06
8101;BME280;4093;53.470;9.832;2023-05-03T05:21:40;102809.66;;;9.80;75.55
8101;BME280;4093;53.470;9.832;2023-05-03T05:24:07;102802.81;;;9.82;76.08
8101;BME280;4093;53.470;9.832;2023-05-03T05:26:37;102821.81;;;10.30;74.92
8101;BME280;4093;53.470;9.832;2023-05-03T05:29:05;102817.25;;;10.67;73.31
8101;BME280;4093;53.470;9.832;2023-05-03T05:31:33;102814.72;;;10.71;71.41
8101;BME280;4093;53.470;9.832;2023-05-03T05:34:02;102810.06;;;10.47;72.58
8101;BME280;4093;53.470;9.832;2023-05-03T05:36:30;102810.69;;;10.88;72.52
8101;BME280;4093;53.470;9.832;2023-05-03T05:38:58;102813.34;;;10.92;72.12
8101;BME280;4093;53.470;9.832;2023-05-03T05:41:25;102815.50;;;11.23;71.20
8101;BME280;4093;53.470;9.832;2023-05-03T05:43:54;102819.25;;;11.47;70.10
8101;BME280;4093;53.470;9.832;2023-05-03T05:46:22;102823.78;;;11.65;69.89
8101;BME280;4093;53.470;9.832;2023-05-03T05:48:50;102823.06;;;11.76;68.88
8101;BME280;4093;53.470;9.832;2023-05-03T05:51:17;102813.16;;;12.16;65.72
8101;BME280;4093;53.470;9.832;2023-05-03T05:53:45;102808.97;;;13.74;64.88
8101;BME280;4093;53.470;9.832;2023-05-03T05:56:13;102816.88;;;14.78;58.23
8101;BME280;4093;53.470;9.832;2023-05-03T05:58:41;102807.25;;;15.14;57.44
8101;BME280;4093;53.470;9.832;2023-05-03T06:01:10;102810.81;;;14.63;58.48
8101;BME280;4093;53.470;9.832;2023-05-03T06:03:38;102812.53;;;14.76;58.96
8101;BME280;4093;53.470;9.832;2023-05-03T06:06:06;102822.06;;;14.22;60.40
8101;BME280;4093;53.470;9.832;2023-05-03T06:08:34;102812.53;;;14.39;60.53
8101;BME280;4093;53.470;9.832;2023-05-03T06:11:02;102811.63;;;14.03;60.51
8101;BME280;4093;53.470;9.832;2023-05-03T06:13:29;102809.09;;;14.58;60.10
8101;BME280;4093;53.470;9.832;2023-05-03T06:16:00;102802.97;;;14.15;58.98
8101;BME280;4093;53.470;9.832;2023-05-03T06:18:29;102820.38;;;14.62;59.10
8101;BME280;4093;53.470;9.832;2023-05-03T06:20:57;102818.63;;;14.63;61.01
8101;BME280;4093;53.470;9.832;2023-05-03T06:23:24;102815.13;;;14.19;61.43
8101;BME280;4093;53.470;9.832;2023-05-03T06:25:53;102818.56;;;13.95;63.01
8101;BME280;4093;53.470;9.832;2023-05-03T06:28:20;102822.94;;;14.38;59.79
8101;BME280;4093;53.470;9.832;2023-05-03T06:30:48;102817.69;;;13.99;59.81
8101;BME280;4093;53.470;9.832;2023-05-03T06:33:16;102806.47;;;14.23;59.64
8101;BME280;4093;53.470;9.832;2023-05-03T06:35:45;102824.69;;;14.26;59.66
8101;BME280;4093;53.470;9.832;2023-05-03T06:38:13;102821.19;;;14.07;61.46
8101;BME280;4093;53.470;9.832;2023-05-03T06:40:41;102821.13;;;13.77;63.01
8101;BME280;4093;53.470;9.832;2023-05-03T06:43:10;102821.13;;;13.83;61.96
8101;BME280;4093;53.470;9.832;2023-05-03T06:45:40;102815.91;;;13.81;61.73
8101;BME280;4093;53.470;9.832;2023-05-03T06:48:08;102831.53;;;13.83;64.34
8101;BME280;4093;53.470;9.832;2023-05-03T06:50:40;102822.84;;;13.73;62.20
8101;BME280;4093;53.470;9.832;2023-05-03T06:53:12;102824.59;;;13.94;62.01
8101;BME280;4093;53.470;9.832;2023-05-03T06:55:42;102827.22;;;14.00;64.25
8101;BME280;4093;53.470;9.832;2023-05-03T06:58:12;102824.59;;;13.85;63.88
8101;BME280;4093;53.470;9.832;2023-05-03T07:00:41;102837.75;;;11.77;64.71
8101;BME280;4093;53.470;9.832;2023-05-03T07:03:09;102833.50;;;12.71;65.20
8101;BME280;4093;53.470;9.832;2023-05-03T07:05:39;102827.31;;;14.63;60.78
8101;BME280;4093;53.470;9.832;2023-05-03T07:08:07;102825.53;;;14.96;59.37
8101;BME280;4093;53.470;9.832;2023-05-03T07:10:36;102829.88;;;14.31;59.91
8101;BME280;4093;53.470;9.832;2023-05-03T07:13:04;102835.09;;;14.37;58.98
8101;BME280;4093;53.470;9.832;2023-05-03T07:15:31;102831.66;;;14.83;58.25
8101;BME280;4093;53.470;9.832;2023-05-03T07:17:59;102836.84;;;14.75;57.36
8101;BME280;4093;53.470;9.832;2023-05-03T07:20:27;102832.50;;;14.32;58.42
8101;BME280;4093;53.470;9.832;2023-05-03T07:22:54;102841.13;;;14.16;56.87
8101;BME280;4093;53.470;9.832;2023-05-03T07:25:22;102834.09;;;13.72;57.56
8101;BME280;4093;53.470;9.832;2023-05-03T07:27:52;102838.88;;;12.97;59.60
8101;BME280;4093;53.470;9.832;2023-05-03T07:30:20;102840.72;;;13.10;59.78
8101;BME280;4093;53.470;9.832;2023-05-03T07:32:48;102834.88;;;13.48;57.77
8101;BME280;4093;53.470;9.832;2023-05-03T07:35:16;102831.47;;;13.64;58.07
8101;BME280;4093;53.470;9.832;2023-05-03T07:37:45;102816.25;;;12.78;58.44
8101;BME280;4093;53.470;9.832;2023-05-03T07:40:15;102834.69;;;12.09;62.29
8101;BME280;4093;53.470;9.832;2023-05-03T07:42:43;102837.03;;;11.85;62.90
8101;BME280;4093;53.470;9.832;2023-05-03T07:45:12;102836.56;;;12.24;61.57
8101;BME280;4093;53.470;9.832;2023-05-03T07:47:40;102840.66;;;13.06;61.51
8101;BME280;4093;53.470;9.832;2023-05-03T07:50:08;102839.97;;;13.28;59.70
8101;BME280;4093;53.470;9.832;2023-05-03T07:52:37;102837.63;;;12.46;62.25
8101;BME280;4093;53.470;9.832;2023-05-03T07:55:06;102842.50;;;13.24;60.00
8101;BME280;4093;53.470;9.832;2023-05-03T07:57:34;102838.28;;;13.39;60.03
8101;BME280;4093;53.470;9.832;2023-05-03T08:00:02;102818.88;;;11.86;63.01
8101;BME280;4093;53.470;9.832;2023-05-03T08:02:33;102837.66;;;12.49;60.09
8101;BME280;4093;53.470;9.832;2023-05-03T08:05:00;102832.06;;;13.11;59.05
8101;BME280;4093;53.470;9.832;2023-05-03T08:07:31;102831.94;;;11.97;58.06
8101;BME280;4093;53.470;9.832;2023-05-03T08:09:59;102834.72;;;13.24;57.79
8101;BME280;4093;53.470;9.832;2023-05-03T08:12:28;102837.47;;;13.53;56.21
8101;BME280;4093;53.470;9.832;2023-05-03T08:14:56;102847.84;;;13.42;56.51
8101;BME280;4093;53.470;9.832;2023-05-03T08:17:23;102837.22;;;13.07;55.91
8101;BME280;4093;53.470;9.832;2023-05-03T08:19:54;102827.94;;;13.49;54.09
8101;BME280;4093;53.470;9.832;2023-05-03T08:22:24;102816.84;;;12.41;55.93
8101;BME280;4093;53.470;9.832;2023-05-03T08:24:52;102831.19;;;13.15;56.11
8101;BME280;4093;53.470;9.832;2023-05-03T08:27:21;102825.38;;;13.58;54.61
8101;BME280;4093;53.470;9.832;2023-05-03T08:29:51;102839.25;;;13.66;54.75
8101;BME280;4093;53.470;9.832;2023-05-03T08:32:18;102828.09;;;14.04;52.88
8101;BME280;4093;53.470;9.832;2023-05-03T08:34:48;102822.94;;;14.24;51.98
8101;BME280;4093;53.470;9.832;2023-05-03T08:37:17;102831.63;;;14.30;51.69
8101;BME280;4093;53.470;9.832;2023-05-03T08:39:45;102812.53;;;14.27;51.77
8101;BME280;4093;53.470;9.832;2023-05-03T08:42:13;102815.59;;;13.15;53.05
8101;BME280;4093;53.470;9.832;2023-05-03T08:44:44;102825.47;;;13.93;53.43
8101;BME280;4093;53.470;9.832;2023-05-03T08:47:13;102822.09;;;14.39;53.13
8101;BME280;4093;53.470;9.832;2023-05-03T08:49:42;102831.13;;;13.06;54.08
8101;BME280;4093;53.470;9.832;2023-05-03T08:52:11;102829.03;;;14.63;53.65
8101;BME280;4093;53.470;9.832;2023-05-03T08:54:42;102817.59;;;15.37;48.70
8101;BME280;4093;53.470;9.832;2023-05-03T08:57:13;102814.06;;;15.50;49.49
8101;BME280;4093;53.470;9.832;2023-05-03T08:59:47;102828.06;;;15.22;50.34
8101;BME280;4093;53.470;9.832;2023-05-03T09:02:15;102821.19;;;15.06;51.26
8101;BME280;4093;53.470;9.832;2023-05-03T09:04:43;102825.59;;;14.73;50.41
8101;BME280;4093;53.470;9.832;2023-05-03T09:07:12;102820.34;;;14.42;51.37
8101;BME280;4093;53.470;9.832;2023-05-03T09:09:44;102833.38;;;14.62;50.82
8101;BME280;4093;53.470;9.832;2023-05-03T09:12:32;102821.09;;;15.33;50.37
8101;BME280;4093;53.470;9.832;2023-05-03T09:15:00;102826.84;;;16.04;48.67
8101;BME280;4093;53.470;9.832;2023-05-03T09:17:29;102826.72;;;16.19;49.12
8101;BME280;4093;53.470;9.832;2023-05-03T09:19:58;102839.50;;;16.58;47.31
8101;BME280;4093;53.470;9.832;2023-05-03T09:22:30;102830.69;;;15.22;51.12
8101;BME280;4093;53.470;9.832;2023-05-03T09:24:59;102822.81;;;15.37;50.92
8101;BME280;4093;53.470;9.832;2023-05-03T09:27:27;102823.69;;;15.33;50.78
8101;BME280;4093;53.470;9.832;2023-05-03T09:29:55;102819.25;;;15.57;49.73
8101;BME280;4093;53.470;9.832;2023-05-03T09:32:23;102819.25;;;15.54;50.67
8101;BME280;4093;53.470;9.832;2023-05-03T09:35:07;102821.06;;;15.35;50.35
8101;BME280;4093;53.470;9.832;2023-05-03T09:37:35;102841.09;;;15.26;50.90
8101;BME280;4093;53.470;9.832;2023-05-03T09:40:06;102835.13;;;14.83;51.63
8101;BME280;4093;53.470;9.832;2023-05-03T09:42:36;102853.56;;;12.92;55.40
8101;BME280;4093;53.470;9.832;2023-05-03T09:45:05;102848.88;;;13.85;54.12
8101;BME280;4093;53.470;9.832;2023-05-03T09:47:48;102845.53;;;14.71;53.72
8101;BME280;4093;53.470;9.832;2023-05-03T09:50:16;102827.19;;;15.24;52.11
8101;BME280;4093;53.470;9.832;2023-05-03T09:52:44;102835.06;;;15.14;51.20
8101;BME280;4093;53.470;9.832;2023-05-03T09:55:15;102842.94;;;14.74;52.03
8101;BME280;4093;53.470;9.832;2023-05-03T09:57:46;102841.97;;;15.19;50.90
8101;BME280;4093;53.470;9.832;2023-05-03T10:00:14;102832.31;;;15.50;51.48
8101;BME280;4093;53.470;9.832;2023-05-03T10:02:47;102825.50;;;15.11;50.56
8101;BME280;4093;53.470;9.832;2023-05-03T10:05:18;102836.84;;;14.69;51.15
8101;BME280;4093;53.470;9.832;2023-05-03T10:07:49;102831.59;;;15.09;50.36
8101;BME280;4093;53.470;9.832;2023-05-03T10:10:21;102840.06;;;13.48;52.24
8101;BME280;4093;53.470;9.832;2023-05-03T10:12:49;102842.06;;;14.67;51.51
8101;BME280;4093;53.470;9.832;2023-05-03T10:15:19;102832.50;;;14.98;50.01
8101;BME280;4093;53.470;9.832;2023-05-03T10:17:51;102826.31;;;15.33;47.72
8101;BME280;4093;53.470;9.832;2023-05-03T10:20:25;102828.97;;;15.04;49.83
8101;BME280;4093;53.470;9.832;2023-05-03T10:23:10;102832.47;;;15.11;51.21
8101;BME280;4093;53.470;9.832;2023-05-03T10:26:12;102834.97;;;15.35;50.41
8101;BME280;4093;53.470;9.832;2023-05-03T10:28:40;102819.50;;;14.77;49.71
8101;BME280;4093;53.470;9.832;2023-05-03T10:31:43;102827.03;;;15.72;49.41
8101;BME280;4093;53.470;9.832;2023-05-03T10:34:22;102817.47;;;15.63;48.49
8101;BME280;4093;53.470;9.832;2023-05-03T10:36:51;102817.22;;;16.14;47.31
8101;BME280;4093;53.470;9.832;2023-05-03T10:39:20;102802.81;;;15.42;48.02
8101;BME280;4093;53.470;9.832;2023-05-03T10:42:01;102813.94;;;15.83;47.97
8101;BME280;4093;53.470;9.832;2023-05-03T10:44:35;102793.75;;;16.09;46.97
8101;BME280;4093;53.470;9.832;2023-05-03T10:47:09;102795.38;;;16.26;47.19
8101;BME280;4093;53.470;9.832;2023-05-03T10:49:37;102808.72;;;15.84;48.84
8101;BME280;4093;53.470;9.832;2023-05-03T10:52:47;102793.66;;;16.22;47.36
8101;BME280;4093;53.470;9.832;2023-05-03T10:55:16;102789.75;;;13.29;50.72
8101;BME280;4093;53.470;9.832;2023-05-03T10:57:47;102817.47;;;13.35;51.69
8101;BME280;4093;53.470;9.832;2023-05-03T11:00:18;102810.66;;;15.39;50.19
8101;BME280;4093;53.470;9.832;2023-05-03T11:03:10;102804.06;;;16.26;49.20
8101;BME280;4093;53.470;9.832;2023-05-03T11:05:39;102802.09;;;16.56;46.39
8101;BME280;4093;53.470;9.832;2023-05-03T11:08:12;102797.66;;;15.24;47.64
8101;BME280;4093;53.470;9.832;2023-05-03T11:10:40;102736.94;;;14.94;47.21
8101;BME280;4093;53.470;9.832;2023-05-03T11:13:09;102802.09;;;14.90;49.10
8101;BME280;4093;53.470;9.832;2023-05-03T11:15:37;102799.88;;;16.04;48.80
8101;BME280;4093;53.470;9.832;2023-05-03T11:18:06;102799.47;;;14.97;51.66
8101;BME280;4093;53.470;9.832;2023-05-03T11:20:35;102805.53;;;15.09;51.08
8101;BME280;4093;53.470;9.832;2023-05-03T11:23:03;102811.44;;;15.57;50.95
8101;BME280;4093;53.470;9.832;2023-05-03T11:25:32;102809.81;;;15.22;51.65
8101;BME280;4093;53.470;9.832;2023-05-03T11:28:01;102820.94;;;15.73;51.56
8101;BME280;4093;53.470;9.832;2023-05-03T11:30:33;102813.72;;;16.18;49.50
8101;BME280;4093;53.470;9.832;2023-05-03T11:33:01;102801.84;;;15.71;49.99
8101;BME280;4093;53.470;9.832;2023-05-03T11:35:29;102812.28;;;15.60;50.31
8101;BME280;4093;53.470;9.832;2023-05-03T11:37:57;102819.28;;;15.52;50.35
8101;BME280;4093;53.470;9.832;2023-05-03T11:40:25;102809.06;;;16.54;48.53
8101;BME280;4093;53.470;9.832;2023-05-03T11:42:54;102800.03;;;15.84;47.81
8101;BME280;4093;53.470;9.832;2023-05-03T11:45:25;102819.34;;;15.34;51.72
8101;BME280;4093;53.470;9.832;2023-05-03T11:47:55;102805.31;;;15.64;49.55
8101;BME280;4093;53.470;9.832;2023-05-03T11:50:41;102808.16;;;16.58;49.48
8101;BME280;4093;53.470;9.832;2023-05-03T11:53:10;102806.00;;;16.00;48.40
8101;BME280;4093;53.470;9.832;2023-05-03T11:55:39;102815.03;;;16.68;49.52
8101;BME280;4093;53.470;9.832;2023-05-03T11:58:08;102817.34;;;15.95;50.58
8101;BME280;4093;53.470;9.832;2023-05-03T12:00:42;102799.44;;;15.20;49.94
8101;BME280;4093;53.470;9.832;2023-05-03T12:03:15;102800.00;;;16.92;49.41
8101;BME280;4093;53.470;9.832;2023-05-03T12:05:44;102790.53;;;15.70;49.78
8101;BME280;4093;53.470;9.832;2023-05-03T12:08:14;102795.00;;;15.39;49.86
8101;BME280;4093;53.470;9.832;2023-05-03T12:10:47;102800.22;;;16.67;50.60
8101;BME280;4093;53.470;9.832;2023-05-03T12:13:26;102786.84;;;17.02;48.69
8101;BME280;4093;53.470;9.832;2023-05-03T12:15:56;102767.16;;;16.68;48.89
8101;BME280;4093;53.470;9.832;2023-05-03T12:18:47;102792.66;;;17.26;47.43
8101;BME280;4093;53.470;9.832;2023-05-03T12:21:18;102795.16;;;17.37;48.39
8101;BME280;4093;53.470;9.832;2023-05-03T12:23:49;102773.41;;;17.33;47.28
8101;BME280;4093;53.470;9.832;2023-05-03T12:26:21;102783.69;;;16.68;48.81
8101;BME280;4093;53.470;9.832;2023-05-03T12:28:51;102784.28;;;16.95;49.51
8101;BME280;4093;53.470;9.832;2023-05-03T12:31:22;102780.66;;;16.15;50.00
8101;BME280;4093;53.470;9.832;2023-05-03T12:33:54;102786.63;;;16.33;49.78
8101;BME280;4093;53.470;9.832;2023-05-03T12:36:42;102780.16;;;15.47;51.28
8101;BME280;4093;53.470;9.832;2023-05-03T12:39:14;102789.28;;;16.25;49.38
8101;BME280;4093;53.470;9.832;2023-05-03T12:41:42;102784.88;;;16.32;50.32
8101;BME280;4093;53.470;9.832;2023-05-03T12:44:12;102774.03;;;15.61;50.37
8101;BME280;4093;53.470;9.832;2023-05-03T12:46:42;102779.84;;;16.04;49.82
8101;BME280;4093;53.470;9.832;2023-05-03T12:49:12;102782.84;;;16.64;48.61
8101;BME280;4093;53.470;9.832;2023-05-03T12:51:41;102751.69;;;15.06;50.13
8101;BME280;4093;53.470;9.832;2023-05-03T12:54:20;102782.44;;;16.09;50.00
8101;BME280;4093;53.470;9.832;2023-05-03T12:56:52;102784.88;;;17.21;47.62
8101;BME280;4093;53.470;9.832;2023-05-03T12:59:21;102771.56;;;17.38;47.23
8101;BME280;4093;53.470;9.832;2023-05-03T13:01:52;102750.53;;;17.47;47.75
8101;BME280;4093;53.470;9.832;2023-05-03T13:04:24;102761.75;;;16.84;47.49
8101;BME280;4093;53.470;9.832;2023-05-03T13:06:55;102767.09;;;16.77;47.79
8101;BME280;4093;53.470;9.832;2023-05-03T13:09:26;102765.75;;;17.16;47.73
8101;BME280;4093;53.470;9.832;2023-05-03T13:12:14;102772.56;;;13.71;53.12
8101;BME280;4093;53.470;9.832;2023-05-03T13:14:43;102773.47;;;14.13;53.59
8101;BME280;4093;53.470;9.832;2023-05-03T13:17:11;102775.78;;;15.57;52.04
8101;BME280;4093;53.470;9.832;2023-05-03T13:19:41;102762.69;;;15.66;50.47
8101;BME280;4093;53.470;9.832;2023-05-03T13:22:10;102766.09;;;15.84;49.55
8101;BME280;4093;53.470;9.832;2023-05-03T13:24:38;102766.41;;;15.21;50.98
8101;BME280;4093;53.470;9.832;2023-05-03T13:27:07;102758.69;;;14.95;51.24
8101;BME280;4093;53.470;9.832;2023-05-03T13:29:36;102756.59;;;15.72;51.38